sensor_id;sensor_type;location;lat;lon;timestamp;pressure;altitude;pressure_sealevel;temperature;humidity
71889;BME280;59762;49.998;14.858;2023-03-11T00:01:00;95001.41;;;5.30;72.09
71889;BME280;59762;49.998;14.858;2023-03-11T00:03:26;94990.22;;;5.28;71.30
71889;BME280;59762;49.998;14.858;2023-03-11T00:05:54;94998.78;;;5.30;71.89
71889;BME280;59762;49.998;14.858;2023-03-11T00:08:24;94996.31;;;5.28;71.42
71889;BME280;59762;49.998;14.858;2023-03-11T00:10:53;95007.72;;;5.29;71.30
71889;BME280;59762;49.998;14.858;2023-03-11T00:13:19;94993.84;;;5.27;71.20
71889;BME280;59762;49.998;14.858;2023-03-11T00:15:48;95000.13;;;5.26;71.10
71889;BME280;59762;49.998;14.858;2023-03-11T00:18:15;94993.75;;;5.20;71.05
71889;BME280;59762;49.998;14.858;2023-03-11T00:20:43;95011.66;;;5.18;71.40
71889;BME280;59762;49.998;14.858;2023-03-11T00:23:11;95020.59;;;5.17;71.59
71889;BME280;59762;49.998;14.858;2023-03-11T00:25:37;95019.94;;;5.15;72.65
71889;BME280;59762;49.998;14.858;2023-03-11T00:28:04;95043.03;;;5.07;72.33
71889;BME280;59762;49.998;14.858;2023-03-11T00:30:32;95045.13;;;4.82;74.19
71889;BME280;59762;49.998;14.858;2023-03-11T00:32:58;95048.78;;;3.99;78.88
71889;BME280;59762;49.998;14.858;2023-03-11T00:35:26;95068.78;;;3.63;79.52
71889;BME280;59762;49.998;14.858;2023-03-11T00:37:55;95081.91;;;3.41;79.96
71889;BME280;59762;49.998;14.858;2023-03-11T00:40:22;95103.25;;;3.31;80.54
71889;BME280;59762;49.998;14.858;2023-03-11T00:42:48;95095.31;;;3.31;81.12
71889;BME280;59762;49.998;14.858;2023-03-11T00:45:15;95119.56;;;3.19;82.10
71889;BME280;59762;49.998;14.858;2023-03-11T00:47:40;95134.97;;;2.91;85.17
71889;BME280;59762;49.998;14.858;2023-03-11T00:50:08;95140.56;;;2.72;87.52
71889;BME280;59762;49.998;14.858;2023-03-11T00:52:36;95155.59;;;2.64;91.09
71889;BME280;59762;49.998;14.858;2023-03-11T00:55:04;95168.72;;;2.40;91.79
71889;BME280;59762;49.998;14.858;2023-03-11T00:57:29;95168.19;;;2.20;94.57
71889;BME280;59762;49.998;14.858;2023-03-11T00:59:55;95153.19;;;1.97;97.40
71889;BME280;59762;49.998;14.858;2023-03-11T01:02:21;95191.59;;;1.74;99.59
71889;BME280;59762;49.998;14.858;2023-03-11T01:04:47;95196.88;;;1.40;100.00
71889;BME280;59762;49.998;14.858;2023-03-11T01:07:12;95204.50;;;1.26;100.00
71889;BME280;59762;49.998;14.858;2023-03-11T01:09:38;95203.47;;;1.19;100.00
71889;BME280;59762;49.998;14.858;2023-03-11T01:12:04;95216.34;;;1.04;100.00
71889;BME280;59762;49.998;14.858;2023-03-11T01:14:30;95213.78;;;0.87;100.00
71889;BME280;59762;49.998;14.858;2023-03-11T01:16:55;95191.13;;;0.86;100.00
71889;BME280;59762;49.998;14.858;2023-03-11T01:19:21;95197.78;;;0.80;100.00
71889;BME280;59762;49.998;14.858;2023-03-11T01:21:47;95197.78;;;0.80;100.00
71889;BME280;59762;49.998;14.858;2023-03-11T01:24:13;95203.88;;;0.81;100.00
71889;BME280;59762;49.998;14.858;2023-03-11T01:26:38;95213.78;;;0.87;100.00
71889;BME280;59762;49.998;14.858;2023-03-11T01:29:04;95198.44;;;0.82;100.00
71889;BME280;59762;49.998;14.858;2023-03-11T01:31:29;95205.16;;;0.77;100.00
71889;BME280;59762;49.998;14.858;2023-03-11T01:33:55;95210.00;;;0.64;100.00
71889;BME280;59762;49.998;14.858;2023-03-11T01:36:21;95202.84;;;0.74;100.00
71889;BME280;59762;49.998;14.858;2023-03-11T01:38:46;95200.44;;;0.80;100.00
71889;BME280;59762;49.998;14.858;2023-03-11T01:41:12;95217.31;;;0.78;100.00
71889;BME280;59762;49.998;14.858;2023-03-11T01:48:55;95217.69;;;0.65;100.00
71889;BME280;59762;49.998;14.858;2023-03-11T01:51:29;95224.59;;;0.66;100.00
71889;BME280;59762;49.998;14.858;2023-03-11T01:53:59;95239.91;;;0.71;100.00
71889;BME280;59762;49.998;14.858;2023-03-11T01:56:26;95248.81;;;0.60;100.00
71889;BME280;59762;49.998;14.858;2023-03-11T01:58:53;95238.69;;;0.65;100.00
71889;BME280;59762;49.998;14.858;2023-03-11T02:01:19;95244.34;;;0.70;100.00
71889;BME280;59762;49.998;14.858;2023-03-11T02:03:46;95255.16;;;0.67;100.00
71889;BME280;59762;49.998;14.858;2023-03-11T02:06:18;95244.13;;;0.64;100.00
71889;BME280;59762;49.998;14.858;2023-03-11T02:08:45;95245.63;;;0.66;100.00
71889;BME280;59762;49.998;14.858;2023-03-11T02:11:18;95264.66;;;0.68;100.00
71889;BME280;59762;49.998;14.858;2023-03-11T02:13:46;95266.47;;;0.68;100.00
71889;BME280;59762;49.998;14.858;2023-03-11T02:16:13;95259.56;;;0.84;100.00
71889;BME280;59762;49.998;14.858;2023-03-11T02:18:39;95246.78;;;0.89;100.00
71889;BME280;59762;49.998;14.858;2023-03-11T02:21:26;95257.84;;;0.75;100.00
71889;BME280;59762;49.998;14.858;2023-03-11T02:24:23;95267.06;;;0.79;100.00
71889;BME280;59762;49.998;14.858;2023-03-11T02:29:21;95269.47;;;0.73;100.00
71889;BME280;59762;49.998;14.858;2023-03-11T02:31:47;95270.44;;;0.72;100.00
71889;BME280;59762;49.998;14.858;2023-03-11T02:34:24;95268.94;;;0.69;100.00
71889;BME280;59762;49.998;14.858;2023-03-11T02:36:50;95267.06;;;0.79;100.00
71889;BME280;59762;49.998;14.858;2023-03-11T02:39:16;95274.34;;;0.85;98.61
71889;BME280;59762;49.998;14.858;2023-03-11T02:41:45;95276.38;;;0.74;100.00
71889;BME280;59762;49.998;14.858;2023-03-11T02:44:13;95302.25;;;0.69;100.00
71889;BME280;59762;49.998;14.858;2023-03-11T02:46:41;95310.66;;;0.72;100.00
71889;BME280;59762;49.998;14.858;2023-03-11T02:49:08;95305.88;;;0.68;100.00
71889;BME280;59762;49.998;14.858;2023-03-11T02:51:34;95300.78;;;0.66;100.00
71889;BME280;59762;49.998;14.858;2023-03-11T02:54:03;95304.75;;;0.70;100.00
71889;BME280;59762;49.998;14.858;2023-03-11T02:56:29;95308.09;;;0.63;100.00
71889;BME280;59762;49.998;14.858;2023-03-11T02:58:55;95312.97;;;0.58;100.00
71889;BME280;59762;49.998;14.858;2023-03-11T03:01:21;95301.34;;;0.60;100.00
71889;BME280;59762;49.998;14.858;2023-03-11T03:03:47;95307.94;;;0.64;100.00
71889;BME280;59762;49.998;14.858;2023-03-11T03:06:12;95324.63;;;0.73;95.49
71889;BME280;59762;49.998;14.858;2023-03-11T03:08:38;95308.31;;;0.69;100.00
71889;BME280;59762;49.998;14.858;2023-03-11T03:11:04;95316.53;;;0.66;98.36
71889;BME280;59762;49.998;14.858;2023-03-11T03:13:30;95330.09;;;0.62;100.00
71889;BME280;59762;49.998;14.858;2023-03-11T03:15:57;95327.91;;;0.57;99.88
71889;BME280;59762;49.998;14.858;2023-03-11T03:18:23;95329.56;;;0.58;99.13
71889;BME280;59762;49.998;14.858;2023-03-11T03:20:50;95341.72;;;0.59;99.64
71889;BME280;59762;49.998;14.858;2023-03-11T03:23:16;95339.56;;;0.55;100.00
71889;BME280;59762;49.998;14.858;2023-03-11T03:25:43;95334.53;;;0.61;100.00
71889;BME280;59762;49.998;14.858;2023-03-11T03:28:10;95341.72;;;0.59;100.00
71889;BME280;59762;49.998;14.858;2023-03-11T03:30:36;95348.47;;;0.62;99.40
71889;BME280;59762;49.998;14.858;2023-03-11T03:33:03;95355.97;;;0.57;100.00
71889;BME280;59762;49.998;14.858;2023-03-11T03:35:29;95351.69;;;0.56;99.55
71889;BME280;59762;49.998;14.858;2023-03-11T03:37:55;95357.22;;;0.53;98.19
71889;BME280;59762;49.998;14.858;2023-03-11T03:40:21;95363.31;;;0.53;97.02
71889;BME280;59762;49.998;14.858;2023-03-11T03:42:46;95376.31;;;0.55;95.52
71889;BME280;59762;49.998;14.858;2023-03-11T03:45:12;95366.91;;;0.52;96.31
71889;BME280;59762;49.998;14.858;2023-03-11T03:47:38;95373.13;;;0.51;93.03
71889;BME280;59762;49.998;14.858;2023-03-11T03:50:05;95383.53;;;0.43;99.48
71889;BME280;59762;49.998;14.858;2023-03-11T03:52:31;95392.38;;;0.42;100.00
71889;BME280;59762;49.998;14.858;2023-03-11T03:54:57;95384.50;;;0.42;100.00
71889;BME280;59762;49.998;14.858;2023-03-11T03:57:22;95403.28;;;0.47;99.79
71889;BME280;59762;49.998;14.858;2023-03-11T03:59:48;95395.41;;;0.47;97.01
71889;BME280;59762;49.998;14.858;2023-03-11T04:02:14;95413.91;;;0.46;95.44
71889;BME280;59762;49.998;14.858;2023-03-11T04:04:39;95414.09;;;0.44;93.95
71889;BME280;59762;49.998;14.858;2023-03-11T04:07:05;95416.53;;;0.46;90.59
71889;BME280;59762;49.998;14.858;2023-03-11T04:09:31;95421.78;;;0.46;91.55
71889;BME280;59762;49.998;14.858;2023-03-11T04:11:57;95417.38;;;0.46;90.82
71889;BME280;59762;49.998;14.858;2023-03-11T04:14:24;95417.97;;;0.40;91.42
71889;BME280;59762;49.998;14.858;2023-03-11T04:16:50;95430.97;;;0.42;92.84
71889;BME280;59762;49.998;14.858;2023-03-11T04:19:16;95428.34;;;0.42;89.12
71889;BME280;59762;49.998;14.858;2023-03-11T04:21:41;95424.03;;;0.41;89.17
71889;BME280;59762;49.998;14.858;2023-03-11T04:24:07;95447.00;;;0.39;89.09
71889;BME280;59762;49.998;14.858;2023-03-11T04:26:33;95441.47;;;0.42;87.01
71889;BME280;59762;49.998;14.858;2023-03-11T04:28:59;95457.22;;;0.42;85.91
71889;BME280;59762;49.998;14.858;2023-03-11T04:31:25;95455.72;;;0.30;89.18
71889;BME280;59762;49.998;14.858;2023-03-11T04:33:50;95461.00;;;0.20;90.29
71889;BME280;59762;49.998;14.858;2023-03-11T04:36:16;95477.84;;;0.17;90.66
71889;BME280;59762;49.998;14.858;2023-03-11T04:38:42;95472.47;;;0.19;90.19
71889;BME280;59762;49.998;14.858;2023-03-11T04:41:07;95473.19;;;0.12;91.86
71889;BME280;59762;49.998;14.858;2023-03-11T04:43:33;95479.38;;;0.10;94.20
71889;BME280;59762;49.998;14.858;2023-03-11T04:45:59;95474.00;;;0.12;94.07
71889;BME280;59762;49.998;14.858;2023-03-11T04:48:25;95475.69;;;0.03;94.62
71889;BME280;59762;49.998;14.858;2023-03-11T04:50:52;95488.41;;;-0.02;95.88
71889;BME280;59762;49.998;14.858;2023-03-11T04:53:18;95498.34;;;-0.05;96.79
71889;BME280;59762;49.998;14.858;2023-03-11T04:55:44;95482.06;;;-0.09;97.16
71889;BME280;59762;49.998;14.858;2023-03-11T04:58:10;95498.78;;;-0.10;98.82
71889;BME280;59762;49.998;14.858;2023-03-11T05:00:36;95490.78;;;-0.18;98.63
71889;BME280;59762;49.998;14.858;2023-03-11T05:03:01;95515.06;;;-0.16;97.35
71889;BME280;59762;49.998;14.858;2023-03-11T05:05:27;95518.66;;;-0.17;97.29
71889;BME280;59762;49.998;14.858;2023-03-11T05:07:53;95502.25;;;-0.19;96.64
71889;BME280;59762;49.998;14.858;2023-03-11T05:10:18;95526.50;;;-0.17;95.35
71889;BME280;59762;49.998;14.858;2023-03-11T05:12:50;95527.91;;;-0.13;93.38
71889;BME280;59762;49.998;14.858;2023-03-11T05:15:16;95539.38;;;-0.14;93.71
71889;BME280;59762;49.998;14.858;2023-03-11T05:17:42;95547.09;;;-0.12;92.07
71889;BME280;59762;49.998;14.858;2023-03-11T05:20:08;95556.88;;;-0.05;89.26
71889;BME280;59762;49.998;14.858;2023-03-11T05:22:35;95560.19;;;-0.03;89.39
71889;BME280;59762;49.998;14.858;2023-03-11T05:25:01;95566.41;;;-0.04;89.61
71889;BME280;59762;49.998;14.858;2023-03-11T05:27:27;95572.34;;;-0.02;89.00
71889;BME280;59762;49.998;14.858;2023-03-11T05:29:53;95598.19;;;-0.07;89.96
71889;BME280;59762;49.998;14.858;2023-03-11T05:32:18;95571.66;;;-0.04;88.31
71889;BME280;59762;49.998;14.858;2023-03-11T05:34:45;95589.59;;;-0.09;89.46
71889;BME280;59762;49.998;14.858;2023-03-11T05:37:11;95599.69;;;-0.14;89.68
71889;BME280;59762;49.998;14.858;2023-03-11T05:39:37;95612.94;;;-0.15;90.35
71889;BME280;59762;49.998;14.858;2023-03-11T05:42:06;95610.06;;;-0.12;90.10
71889;BME280;59762;49.998;14.858;2023-03-11T05:44:33;95619.84;;;-0.14;88.87
71889;BME280;59762;49.998;14.858;2023-03-11T05:46:59;95630.44;;;-0.16;89.03
71889;BME280;59762;49.998;14.858;2023-03-11T05:49:25;95624.94;;;-0.22;91.19
71889;BME280;59762;49.998;14.858;2023-03-11T05:51:51;95623.44;;;-0.15;89.21
71889;BME280;59762;49.998;14.858;2023-03-11T05:54:18;95646.06;;;-0.14;89.71
71889;BME280;59762;49.998;14.858;2023-03-11T05:56:45;95641.25;;;-0.19;90.19
71889;BME280;59762;49.998;14.858;2023-03-11T05:59:15;95658.06;;;-0.21;91.02
71889;BME280;59762;49.998;14.858;2023-03-11T06:01:41;95651.72;;;-0.19;91.97
71889;BME280;59762;49.998;14.858;2023-03-11T06:04:08;95661.25;;;-0.18;89.61
71889;BME280;59762;49.998;14.858;2023-03-11T06:06:34;95656.97;;;-0.19;89.04
71889;BME280;59762;49.998;14.858;2023-03-11T06:09:00;95662.63;;;-0.14;87.97
71889;BME280;59762;49.998;14.858;2023-03-11T06:11:28;95681.97;;;-0.15;87.64
71889;BME280;59762;49.998;14.858;2023-03-11T06:13:56;95673.00;;;-0.12;87.25
71889;BME280;59762;49.998;14.858;2023-03-11T06:16:23;95686.66;;;-0.09;86.80
71889;BME280;59762;49.998;14.858;2023-03-11T06:18:50;95685.16;;;-0.11;86.46
71889;BME280;59762;49.998;14.858;2023-03-11T06:21:22;95692.75;;;-0.08;85.52
71889;BME280;59762;49.998;14.858;2023-03-11T06:23:48;95704.47;;;-0.03;84.26
71889;BME280;59762;49.998;14.858;2023-03-11T06:26:17;95702.44;;;0.01;83.97
71889;BME280;59762;49.998;14.858;2023-03-11T06:28:44;95719.81;;;0.02;84.22
71889;BME280;59762;49.998;14.858;2023-03-11T06:31:13;95729.47;;;0.01;84.17
71889;BME280;59762;49.998;14.858;2023-03-11T06:33:40;95739.97;;;0.01;83.89
71889;BME280;59762;49.998;14.858;2023-03-11T06:36:06;95753.94;;;0.02;83.68
71889;BME280;59762;49.998;14.858;2023-03-11T06:38:32;95772.97;;;0.04;82.86
71889;BME280;59762;49.998;14.858;2023-03-11T06:40:59;95770.34;;;0.04;82.55
71889;BME280;59762;49.998;14.858;2023-03-11T06:43:25;95778.09;;;0.05;82.83
71889;BME280;59762;49.998;14.858;2023-03-11T06:45:51;95781.56;;;0.06;82.05
71889;BME280;59762;49.998;14.858;2023-03-11T06:48:16;95792.06;;;0.06;82.34
71889;BME280;59762;49.998;14.858;2023-03-11T06:50:42;95800.22;;;0.13;82.33
71889;BME280;59762;49.998;14.858;2023-03-11T06:53:08;95807.53;;;0.09;82.18
71889;BME280;59762;49.998;14.858;2023-03-11T06:55:34;95803.81;;;0.12;81.77
71889;BME280;59762;49.998;14.858;2023-03-11T06:58:00;95823.84;;;0.13;82.95
71889;BME280;59762;49.998;14.858;2023-03-11T07:00:26;95821.25;;;0.22;81.84
71889;BME280;59762;49.998;14.858;2023-03-11T07:02:52;95810.59;;;0.14;81.79
71889;BME280;59762;49.998;14.858;2023-03-11T07:05:18;95816.94;;;0.12;81.53
71889;BME280;59762;49.998;14.858;2023-03-11T07:07:44;95832.97;;;0.18;81.17
71889;BME280;59762;49.998;14.858;2023-03-11T07:10:10;95842.94;;;0.24;81.16
71889;BME280;59762;49.998;14.858;2023-03-11T07:12:36;95853.88;;;0.39;82.14
71889;BME280;59762;49.998;14.858;2023-03-11T07:15:03;95860.91;;;0.29;79.32
71889;BME280;59762;49.998;14.858;2023-03-11T07:17:29;95843.47;;;0.28;79.32
71889;BME280;59762;49.998;14.858;2023-03-11T07:19:54;95866.00;;;0.30;78.40
71889;BME280;59762;49.998;14.858;2023-03-11T07:22:20;95877.63;;;0.37;80.19
71889;BME280;59762;49.998;14.858;2023-03-11T07:24:47;95873.91;;;0.40;76.70
71889;BME280;59762;49.998;14.858;2023-03-11T07:27:13;95879.34;;;0.48;78.69
71889;BME280;59762;49.998;14.858;2023-03-11T07:29:39;95871.19;;;0.51;77.05
71889;BME280;59762;49.998;14.858;2023-03-11T07:32:08;95896.78;;;0.58;75.81
71889;BME280;59762;49.998;14.858;2023-03-11T07:34:34;95890.41;;;0.61;76.90
71889;BME280;59762;49.998;14.858;2023-03-11T07:37:00;95909.47;;;0.53;76.17
71889;BME280;59762;49.998;14.858;2023-03-11T07:39:25;95924.56;;;0.61;76.30
71889;BME280;59762;49.998;14.858;2023-03-11T07:41:51;95900.72;;;0.43;77.06
71889;BME280;59762;49.998;14.858;2023-03-11T07:44:17;95921.03;;;0.41;76.78
71889;BME280;59762;49.998;14.858;2023-03-11T07:46:43;95943.03;;;0.40;77.59
71889;BME280;59762;49.998;14.858;2023-03-11T07:49:09;95944.66;;;0.41;78.08
71889;BME280;59762;49.998;14.858;2023-03-11T07:51:37;95948.78;;;0.34;78.48
71889;BME280;59762;49.998;14.858;2023-03-11T07:54:03;95953.41;;;0.21;78.74
71889;BME280;59762;49.998;14.858;2023-03-11T07:56:31;95943.19;;;0.18;78.01
71889;BME280;59762;49.998;14.858;2023-03-11T07:58:58;95969.69;;;0.15;80.14
71889;BME280;59762;49.998;14.858;2023-03-11T08:01:26;95972.19;;;0.17;79.81
71889;BME280;59762;49.998;14.858;2023-03-11T08:03:55;95968.53;;;0.08;79.24
71889;BME280;59762;49.998;14.858;2023-03-11T08:06:27;95995.81;;;0.17;79.32
71889;BME280;59762;49.998;14.858;2023-03-11T08:08:56;96004.38;;;0.18;79.32
71889;BME280;59762;49.998;14.858;2023-03-11T08:11:22;96004.78;;;0.14;80.21
71889;BME280;59762;49.998;14.858;2023-03-11T08:13:49;96005.69;;;0.03;81.56
71889;BME280;59762;49.998;14.858;2023-03-11T08:16:17;96017.28;;;0.01;83.24
71889;BME280;59762;49.998;14.858;2023-03-11T08:18:44;96034.53;;;0.03;84.45
71889;BME280;59762;49.998;14.858;2023-03-11T08:21:12;96025.47;;;0.08;84.35
71889;BME280;59762;49.998;14.858;2023-03-11T08:23:39;96028.53;;;-0.08;84.78
71889;BME280;59762;49.998;14.858;2023-03-11T08:26:07;96041.22;;;-0.13;84.72
71889;BME280;59762;49.998;14.858;2023-03-11T08:28:32;96042.59;;;-0.09;86.18
71889;BME280;59762;49.998;14.858;2023-03-11T08:30:58;96049.44;;;-0.18;87.88
71889;BME280;59762;49.998;14.858;2023-03-11T08:33:26;96057.19;;;-0.16;87.12
71889;BME280;59762;49.998;14.858;2023-03-11T08:35:53;96061.88;;;-0.20;87.29
71889;BME280;59762;49.998;14.858;2023-03-11T08:38:18;96071.50;;;-0.20;86.55
71889;BME280;59762;49.998;14.858;2023-03-11T08:40:44;96067.72;;;-0.27;87.15
71889;BME280;59762;49.998;14.858;2023-03-11T08:43:13;96071.59;;;-0.11;87.28
71889;BME280;59762;49.998;14.858;2023-03-11T08:45:40;96077.00;;;-0.23;88.08
71889;BME280;59762;49.998;14.858;2023-03-11T08:48:06;96071.41;;;-0.30;88.83
71889;BME280;59762;49.998;14.858;2023-03-11T08:50:34;96075.22;;;-0.23;90.02
71889;BME280;59762;49.998;14.858;2023-03-11T08:52:59;96088.03;;;-0.09;90.39
71889;BME280;59762;49.998;14.858;2023-03-11T08:55:28;96102.13;;;-0.10;87.79
71889;BME280;59762;49.998;14.858;2023-03-11T08:57:54;96108.72;;;0.05;88.03
71889;BME280;59762;49.998;14.858;2023-03-11T09:00:21;96099.09;;;-0.05;86.62
71889;BME280;59762;49.998;14.858;2023-03-11T09:02:47;96116.09;;;0.12;85.30
71889;BME280;59762;49.998;14.858;2023-03-11T09:05:13;96115.56;;;-0.03;84.90
71889;BME280;59762;49.998;14.858;2023-03-11T09:07:39;96098.41;;;-0.07;83.45
71889;BME280;59762;49.998;14.858;2023-03-11T09:10:08;96125.66;;;0.01;85.42
71889;BME280;59762;49.998;14.858;2023-03-11T09:12:35;96120.38;;;0.13;82.59
71889;BME280;59762;49.998;14.858;2023-03-11T09:15:01;96117.34;;;0.17;82.05
71889;BME280;59762;49.998;14.858;2023-03-11T09:17:26;96144.47;;;0.06;83.64
71889;BME280;59762;49.998;14.858;2023-03-11T09:19:52;96147.72;;;0.10;83.09
71889;BME280;59762;49.998;14.858;2023-03-11T09:22:17;96151.47;;;0.17;84.60
71889;BME280;59762;49.998;14.858;2023-03-11T09:24:43;96168.41;;;0.24;84.47
71889;BME280;59762;49.998;14.858;2023-03-11T09:27:09;96162.91;;;0.27;84.94
71889;BME280;59762;49.998;14.858;2023-03-11T09:29:35;96160.84;;;0.10;85.99
71889;BME280;59762;49.998;14.858;2023-03-11T09:32:01;96176.81;;;0.07;85.96
71889;BME280;59762;49.998;14.858;2023-03-11T09:34:26;96176.94;;;0.05;87.00
71889;BME280;59762;49.998;14.858;2023-03-11T09:36:52;96180.16;;;0.09;86.95
71889;BME280;59762;49.998;14.858;2023-03-11T09:39:18;96169.78;;;0.08;86.63
71889;BME280;59762;49.998;14.858;2023-03-11T09:41:56;96184.56;;;0.08;86.53
71889;BME280;59762;49.998;14.858;2023-03-11T09:57:51;96207.66;;;0.26;83.08
71889;BME280;59762;49.998;14.858;2023-03-11T10:00:19;96222.78;;;0.33;82.27
71889;BME280;59762;49.998;14.858;2023-03-11T10:02:48;96227.94;;;0.23;81.43
71889;BME280;59762;49.998;14.858;2023-03-11T10:05:20;96219.94;;;0.25;81.36
71889;BME280;59762;49.998;14.858;2023-03-11T10:07:57;96239.25;;;0.35;81.50
71889;BME280;59762;49.998;14.858;2023-03-11T10:10:27;96238.09;;;0.49;80.12
71889;BME280;59762;49.998;14.858;2023-03-11T10:13:13;96235.44;;;0.60;78.71
71889;BME280;59762;49.998;14.858;2023-03-11T10:27:21;96237.00;;;0.51;76.19
71889;BME280;59762;49.998;14.858;2023-03-11T10:30:10;96256.59;;;0.47;75.85
71889;BME280;59762;49.998;14.858;2023-03-11T10:32:54;96259.00;;;0.71;76.23
71889;BME280;59762;49.998;14.858;2023-03-11T10:35:23;96268.31;;;0.75;76.33
71889;BME280;59762;49.998;14.858;2023-03-11T10:37:59;96269.53;;;0.71;77.26
71889;BME280;59762;49.998;14.858;2023-03-11T10:40:33;96260.44;;;0.95;74.45
71889;BME280;59762;49.998;14.858;2023-03-11T10:43:03;96281.94;;;1.21;74.32
71889;BME280;59762;49.998;14.858;2023-03-11T10:45:36;96261.47;;;1.24;71.60
71889;BME280;59762;49.998;14.858;2023-03-11T10:48:11;96268.69;;;1.32;72.42
71889;BME280;59762;49.998;14.858;2023-03-11T10:50:44;96269.19;;;1.46;70.18
71889;BME280;59762;49.998;14.858;2023-03-11T10:53:16;96274.75;;;1.53;72.50
71889;BME280;59762;49.998;14.858;2023-03-11T10:55:48;96272.78;;;1.45;71.77
71889;BME280;59762;49.998;14.858;2023-03-11T10:58:17;96286.38;;;1.50;71.36
71889;BME280;59762;49.998;14.858;2023-03-11T11:00:43;96280.97;;;1.22;73.65
71889;BME280;59762;49.998;14.858;2023-03-11T11:03:20;96282.38;;;1.26;72.10
71889;BME280;59762;49.998;14.858;2023-03-11T11:06:03;96284.28;;;1.03;72.15
71889;BME280;59762;49.998;14.858;2023-03-11T11:08:29;96294.75;;;0.94;73.58
71889;BME280;59762;49.998;14.858;2023-03-11T11:10:57;96283.38;;;0.73;74.67
71889;BME280;59762;49.998;14.858;2023-03-11T11:13:29;96292.00;;;0.64;77.18
71889;BME280;59762;49.998;14.858;2023-03-11T11:16:17;96304.28;;;0.32;79.77
71889;BME280;59762;49.998;14.858;2023-03-11T11:19:02;96312.41;;;0.29;80.35
71889;BME280;59762;49.998;14.858;2023-03-11T11:21:51;96313.81;;;0.32;78.89
71889;BME280;59762;49.998;14.858;2023-03-11T11:24:27;96317.63;;;0.40;79.48
71889;BME280;59762;49.998;14.858;2023-03-11T11:29:44;96323.44;;;0.43;78.46
71889;BME280;59762;49.998;14.858;2023-03-11T11:32:26;96330.31;;;0.66;76.61
71889;BME280;59762;49.998;14.858;2023-03-11T11:37:38;96321.50;;;0.88;73.84
71889;BME280;59762;49.998;14.858;2023-03-11T11:40:16;96327.19;;;1.04;73.20
71889;BME280;59762;49.998;14.858;2023-03-11T11:45:29;96328.53;;;1.19;71.58
71889;BME280;59762;49.998;14.858;2023-03-11T11:48:05;96332.53;;;1.13;72.35
71889;BME280;59762;49.998;14.858;2023-03-11T11:50:37;96331.88;;;1.21;71.77
71889;BME280;59762;49.998;14.858;2023-03-11T11:55:48;96335.94;;;0.93;71.44
71889;BME280;59762;49.998;14.858;2023-03-11T11:58:17;96330.19;;;0.99;70.87
71889;BME280;59762;49.998;14.858;2023-03-11T12:03:38;96326.41;;;0.92;69.96
71889;BME280;59762;49.998;14.858;2023-03-11T12:09:18;96352.06;;;1.20;68.54
71889;BME280;59762;49.998;14.858;2023-03-11T12:11:54;96348.53;;;1.51;67.54
71889;BME280;59762;49.998;14.858;2023-03-11T12:14:50;96346.81;;;1.61;66.94
71889;BME280;59762;49.998;14.858;2023-03-11T12:17:15;96351.13;;;1.42;67.73
71889;BME280;59762;49.998;14.858;2023-03-11T12:19:53;96340.00;;;1.18;67.95
71889;BME280;59762;49.998;14.858;2023-03-11T12:30:40;96359.78;;;1.33;66.77
71889;BME280;59762;49.998;14.858;2023-03-11T12:33:26;96359.72;;;1.44;66.61
71889;BME280;59762;49.998;14.858;2023-03-11T12:35:56;96355.53;;;1.62;66.29
71889;BME280;59762;49.998;14.858;2023-03-11T12:46:11;96375.25;;;1.26;67.58
71889;BME280;59762;49.998;14.858;2023-03-11T12:48:45;96372.34;;;1.29;64.11
71889;BME280;59762;49.998;14.858;2023-03-11T12:54:29;96383.47;;;1.33;65.18
71889;BME280;59762;49.998;14.858;2023-03-11T13:05:08;96403.22;;;1.16;65.00
71889;BME280;59762;49.998;14.858;2023-03-11T13:10:20;96406.09;;;1.45;64.17
71889;BME280;59762;49.998;14.858;2023-03-11T13:12:58;96403.31;;;1.46;65.37
71889;BME280;59762;49.998;14.858;2023-03-11T13:15:33;96414.25;;;1.42;66.76
71889;BME280;59762;49.998;14.858;2023-03-11T13:25:41;96435.34;;;0.88;71.75
71889;BME280;59762;49.998;14.858;2023-03-11T13:28:25;96431.53;;;0.81;72.99
71889;BME280;59762;49.998;14.858;2023-03-11T13:34:03;96439.13;;;0.95;70.56
71889;BME280;59762;49.998;14.858;2023-03-11T13:36:56;96445.13;;;0.86;74.04
71889;BME280;59762;49.998;14.858;2023-03-11T13:39:38;96449.91;;;0.92;75.70
71889;BME280;59762;49.998;14.858;2023-03-11T13:42:27;96458.22;;;0.55;77.38
71889;BME280;59762;49.998;14.858;2023-03-11T13:44:55;96462.16;;;0.05;82.11
71889;BME280;59762;49.998;14.858;2023-03-11T13:47:22;96473.38;;;0.62;81.10
71889;BME280;59762;49.998;14.858;2023-03-11T13:52:37;96464.16;;;0.79;78.35
71889;BME280;59762;49.998;14.858;2023-03-11T13:55:16;96473.66;;;1.02;76.64
71889;BME280;59762;49.998;14.858;2023-03-11T13:57:51;96471.28;;;0.88;77.76
71889;BME280;59762;49.998;14.858;2023-03-11T14:00:20;96471.75;;;1.04;76.83
71889;BME280;59762;49.998;14.858;2023-03-11T14:02:52;96474.31;;;1.15;76.81
71889;BME280;59762;49.998;14.858;2023-03-11T14:05:30;96466.72;;;1.01;74.85
71889;BME280;59762;49.998;14.858;2023-03-11T14:08:20;96469.59;;;0.98;71.95
71889;BME280;59762;49.998;14.858;2023-03-11T14:10:55;96486.91;;;1.11;70.54
71889;BME280;59762;49.998;14.858;2023-03-11T14:13:23;96480.44;;;1.15;69.76
71889;BME280;59762;49.998;14.858;2023-03-11T14:18:37;96510.59;;;1.00;67.41
71889;BME280;59762;49.998;14.858;2023-03-11T14:21:04;96501.69;;;1.12;68.60
71889;BME280;59762;49.998;14.858;2023-03-11T14:23:38;96499.59;;;0.95;69.11
71889;BME280;59762;49.998;14.858;2023-03-11T14:26:28;96500.72;;;1.24;68.71
71889;BME280;59762;49.998;14.858;2023-03-11T14:28:56;96505.91;;;1.46;67.70
71889;BME280;59762;49.998;14.858;2023-03-11T14:31:39;96510.63;;;1.32;67.02
71889;BME280;59762;49.998;14.858;2023-03-11T14:36:43;96511.91;;;1.37;66.31
71889;BME280;59762;49.998;14.858;2023-03-11T14:39:24;96525.22;;;1.25;66.29
71889;BME280;59762;49.998;14.858;2023-03-11T14:41:52;96509.59;;;1.12;65.98
71889;BME280;59762;49.998;14.858;2023-03-11T14:44:22;96514.31;;;1.29;66.28